Time;durP1;ratioP1;P1;durP2;ratioP2;P2;SDS_P1;SDS_P2;PMS_P1;PMS_P2;Temp;Humidity;BMP_temperature;BMP_pressure;BME280_temperature;BME280_humidity;BME280_pressure;Samples;Min_cycle;Max_cycle;Signal;HPM_P1;HPM_P2
2022/11/01 00:02:10;;;;;;;23.43;14.40;;;;;;;9.19;88.16;100732.13;1779831;80;21020;-73
2022/11/01 00:04:38;;;;;;;21.67;13.63;;;;;;;9.18;88.24;100726.50;1779860;80;20992;-72
2022/11/01 00:07:05;;;;;;;25.17;14.10;;;;;;;9.15;88.15;100722.21;1779815;80;21490;-72
2022/11/01 00:13:52;;;;;;;19.10;14.03;;;;;;;9.09;88.65;100718.42;1780235;80;21055;-71
2022/11/01 00:16:21;;;;;;;20.10;14.23;;;;;;;9.11;89.20;100715.33;1779726;80;21459;-73
2022/11/01 00:18:49;;;;;;;20.13;14.60;;;;;;;9.10;89.27;100717.09;1779835;80;21008;-72
2022/11/01 00:21:17;;;;;;;24.97;13.97;;;;;;;9.05;88.34;100712.42;1779798;80;20984;-72
2022/11/01 00:23:46;;;;;;;17.97;12.83;;;;;;;8.96;88.12;100706.58;1779873;80;21294;-72
2022/11/01 00:26:17;;;;;;;25.83;15.30;;;;;;;8.89;88.13;100706.72;1779788;80;20989;-72
2022/11/01 00:28:46;;;;;;;20.00;13.57;;;;;;;8.84;87.98;100706.42;1779881;80;21048;-71
2022/11/01 00:31:16;;;;;;;21.50;13.53;;;;;;;8.80;88.09;100700.42;1780023;80;21012;-72
2022/11/01 00:33:43;;;;;;;19.10;12.63;;;;;;;8.75;87.94;100700.98;1779963;80;21012;-72
2022/11/01 00:36:11;;;;;;;19.97;13.13;;;;;;;8.69;87.78;100695.91;1780103;80;21105;-72
2022/11/01 00:38:39;;;;;;;19.80;14.10;;;;;;;8.65;87.77;100697.75;1779712;80;22061;-72
2022/11/01 00:41:07;;;;;;;18.97;13.17;;;;;;;8.61;87.87;100692.17;1780065;80;21016;-72
2022/11/01 00:43:35;;;;;;;18.17;13.13;;;;;;;8.59;87.84;100693.98;1779869;80;21036;-71
2022/11/01 00:46:03;;;;;;;18.13;12.53;;;;;;;8.56;87.93;100694.03;1780072;80;21513;-79
2022/11/01 00:48:31;;;;;;;19.90;12.67;;;;;;;8.54;88.00;100693.23;1779792;80;21131;-71
2022/11/01 00:50:58;;;;;;;19.87;12.73;;;;;;;8.52;88.22;100692.40;1780209;80;21475;-72
2022/11/01 00:53:25;;;;;;;17.10;12.50;;;;;;;8.51;88.19;100694.61;1779896;80;21008;-72
2022/11/01 00:55:52;;;;;;;26.87;16.17;;;;;;;8.49;88.40;100689.41;1780290;80;21016;-72
2022/11/01 00:58:19;;;;;;;21.43;14.33;;;;;;;8.55;89.38;100691.47;1777736;80;21525;-72
2022/11/01 01:00:47;;;;;;;23.07;14.50;;;;;;;8.64;89.98;100692.55;1777529;80;21108;-72
2022/11/01 01:03:14;;;;;;;20.37;13.37;;;;;;;8.61;88.81;100690.86;1777078;80;21020;-71
2022/11/01 01:05:42;;;;;;;21.60;14.27;;;;;;;8.56;88.58;100689.25;1777212;80;20977;-72
2022/11/01 01:08:10;;;;;;;18.00;12.63;;;;;;;8.53;88.90;100694.11;1777221;80;21710;-71
2022/11/01 01:10:37;;;;;;;24.17;13.70;;;;;;;8.52;88.56;100693.70;1777233;80;21023;-72
2022/11/01 01:13:04;;;;;;;22.33;14.10;;;;;;;8.50;88.58;100696.80;1777108;80;21547;-71
2022/11/01 01:15:31;;;;;;;26.53;17.53;;;;;;;8.48;88.74;100690.77;1777185;80;21032;-71
2022/11/01 01:17:58;;;;;;;22.90;15.90;;;;;;;8.54;89.39;100688.45;1777225;80;21028;-72
2022/11/01 01:20:25;;;;;;;23.00;15.37;;;;;;;8.61;90.08;100683.48;1777428;80;21055;-72
2022/11/01 01:22:52;;;;;;;28.10;16.70;;;;;;;8.63;89.91;100685.61;1777345;80;21048;-72
2022/11/01 01:25:20;;;;;;;26.17;16.53;;;;;;;8.65;90.04;100683.38;1777487;80;21229;-72
2022/11/01 01:27:48;;;;;;;21.83;15.70;;;;;;;8.72;90.44;100684.07;1777013;80;21441;-72
2022/11/01 01:30:16;;;;;;;26.00;16.90;;;;;;;8.75;90.21;100677.91;1777426;80;20973;-72
2022/11/01 01:32:43;;;;;;;26.13;18.00;;;;;;;8.77;90.41;100669.14;1777490;80;21012;-72
2022/11/01 01:35:11;;;;;;;28.70;17.60;;;;;;;8.87;91.23;100665.41;1777203;80;21529;-71
2022/11/01 01:37:39;;;;;;;27.80;17.60;;;;;;;8.96;91.47;100666.91;1777047;80;21147;-72
2022/11/01 01:40:08;;;;;;;27.83;18.13;;;;;;;9.02;91.56;100654.98;1777282;80;21579;-72
2022/11/01 01:42:39;;;;;;;26.63;17.47;;;;;;;9.09;91.64;100655.66;1777178;80;21063;-72
2022/11/01 01:45:35;;;;;;;24.30;16.60;;;;;;;9.13;91.50;100653.39;1777025;80;21524;-72
2022/11/01 01:48:22;;;;;;;23.80;16.20;;;;;;;9.12;90.89;100650.37;1777100;80;21067;-72
2022/11/01 01:51:00;;;;;;;21.33;15.80;;;;;;;9.14;90.95;100648.13;1777211;80;21510;-72
2022/11/01 01:53:31;;;;;;;22.07;15.83;;;;;;;9.16;90.94;100646.77;1777037;80;20977;-72
2022/11/01 01:56:02;;;;;;;25.40;16.77;;;;;;;9.16;90.70;100642.84;1777179;80;21010;-72
2022/11/01 01:58:34;;;;;;;21.17;15.30;;;;;;;9.19;90.82;100641.45;1779073;80;21526;-72
2022/11/01 02:01:01;;;;;;;24.73;16.83;;;;;;;9.18;90.54;100637.59;1779782;80;21528;-71
2022/11/01 02:03:31;;;;;;;31.60;17.10;;;;;;;9.18;90.47;100640.20;1779937;80;21947;-72
2022/11/01 02:06:09;;;;;;;26.95;18.00;;;;;;;9.18;90.62;100637.13;1780131;80;21485;-72
2022/11/01 02:08:41;;;;;;;30.17;18.93;;;;;;;9.22;90.88;100636.59;1779918;80;21004;-71
2022/11/01 02:11:10;;;;;;;27.07;19.03;;;;;;;9.27;91.21;100630.78;1779912;80;21529;-71
2022/11/01 02:13:37;;;;;;;27.63;17.53;;;;;;;9.33;91.46;100625.38;1780209;80;21040;-73
2022/11/01 02:16:19;;;;;;;24.47;17.27;;;;;;;9.37;91.55;100610.86;1780004;80;21227;-72
2022/11/01 02:19:10;;;;;;;25.90;17.70;;;;;;;9.41;91.34;100616.01;1780039;80;21954;-72
2022/11/01 02:21:54;;;;;;;27.93;18.43;;;;;;;9.43;91.50;100612.91;1780014;80;21067;-72
2022/11/01 02:24:42;;;;;;;24.23;16.70;;;;;;;9.44;91.29;100605.45;1780315;80;21383;-72
2022/11/01 02:27:35;;;;;;;25.77;17.80;;;;;;;9.44;91.21;100600.22;1780053;80;21493;-72
2022/11/01 02:30:18;;;;;;;25.50;17.33;;;;;;;9.44;91.24;100599.76;1778057;80;21130;-72
2022/11/01 02:33:06;;;;;;;26.07;17.03;;;;;;;9.44;91.13;100597.14;1780104;80;21012;-72
2022/11/01 02:36:02;;;;;;;22.23;16.70;;;;;;;9.47;91.29;100597.51;1779046;80;21540;-72
2022/11/01 02:38:44;;;;;;;27.67;18.57;;;;;;;9.46;91.20;100595.34;1758574;80;20981;-72
2022/11/01 02:41:19;;;;;;;26.77;17.67;;;;;;;9.47;91.28;100593.13;1774732;80;21630;-72
2022/11/01 02:43:57;;;;;;;25.33;17.73;;;;;;;9.50;91.41;100597.41;1780272;80;21941;-71
2022/11/01 02:49:16;;;;;;;37.13;23.57;;;;;;;9.56;91.64;100602.03;1780148;80;21009;-72
2022/11/01 02:51:45;;;;;;;32.80;22.63;;;;;;;9.63;92.38;100597.92;1754651;80;21028;-72
2022/11/01 02:54:29;;;;;;;30.73;22.10;;;;;;;9.71;92.87;100591.55;1779683;80;21529;-72
2022/11/01 02:57:03;;;;;;;28.87;19.90;;;;;;;9.74;92.81;100583.59;1779700;80;22044;-72
2022/11/01 02:59:29;;;;;;;29.37;19.67;;;;;;;9.78;92.96;100581.73;1776887;80;21060;-72
2022/11/01 03:02:08;;;;;;;33.73;19.17;;;;;;;9.79;92.79;100592.63;1777130;80;21470;-72
2022/11/01 03:04:36;;;;;;;31.23;19.27;;;;;;;9.81;92.95;100594.30;1777392;80;21478;-71
2022/11/01 03:07:08;;;;;;;25.33;19.07;;;;;;;9.87;93.14;100595.88;1777041;80;20996;-72
2022/11/01 03:09:36;;;;;;;28.33;19.07;;;;;;;9.90;93.04;100602.31;1777259;80;21080;-71
2022/11/01 03:12:17;;;;;;;28.93;20.47;;;;;;;9.90;92.65;100603.63;1776938;80;21495;-72
2022/11/01 03:14:58;;;;;;;32.73;21.77;;;;;;;9.90;92.85;100590.53;1777289;80;21000;-72
2022/11/01 03:17:34;;;;;;;32.87;20.30;;;;;;;9.94;93.14;100578.19;1776812;80;20969;-71
2022/11/01 03:20:18;;;;;;;29.13;19.97;;;;;;;9.94;93.06;100580.35;1776493;80;21016;-71
2022/11/01 03:22:52;;;;;;;30.83;19.60;;;;;;;9.92;92.91;100584.80;1776716;80;21299;-72
2022/11/01 03:25:41;;;;;;;29.07;20.07;;;;;;;9.94;93.08;100582.13;1777418;80;20973;-72
2022/11/01 03:28:33;;;;;;;24.77;19.65;;;;;;;9.94;93.16;100580.35;1777254;80;21010;-72
2022/11/01 03:31:08;;;;;;;29.07;18.73;;;;;;;9.88;92.40;100580.55;1777471;80;21021;-72
2022/11/01 03:33:41;;;;;;;28.17;19.03;;;;;;;9.79;92.18;100578.23;1777201;80;21000;-72
2022/11/01 03:36:12;;;;;;;28.23;18.77;;;;;;;9.74;92.09;100581.44;1777200;80;21478;-71
2022/11/01 03:38:44;;;;;;;24.20;16.60;;;;;;;9.70;92.11;100575.87;1777236;80;21250;-72
2022/11/01 03:41:16;;;;;;;26.10;18.20;;;;;;;9.65;91.73;100566.02;1777040;80;21410;-72
2022/11/01 03:43:43;;;;;;;27.63;18.90;;;;;;;9.57;91.37;100571.03;1777123;80;21008;-72
2022/11/01 03:46:12;;;;;;;27.77;18.10;;;;;;;9.52;91.34;100570.76;1777260;80;20993;-72
2022/11/01 03:48:40;;;;;;;26.87;17.23;;;;;;;9.48;91.56;100567.84;1774577;80;21447;-72
2022/11/01 03:51:08;;;;;;;24.37;17.00;;;;;;;9.43;91.02;100570.59;1774364;80;20985;-72
2022/11/01 03:53:35;;;;;;;23.40;17.30;;;;;;;9.35;90.86;100565.58;1777439;80;21454;-72
2022/11/01 03:56:03;;;;;;;24.50;16.50;;;;;;;9.30;90.89;100569.23;1777043;80;21071;-72
2022/11/01 03:58:40;;;;;;;27.70;16.37;;;;;;;9.25;90.75;100568.50;1777047;80;21024;-72
2022/11/01 04:00:58;;;;;;;22.37;15.70;;;;;;;9.19;90.63;100568.67;1775087;80;21933;-72
2022/11/01 04:03:25;;;;;;;26.97;17.23;;;;;;;9.12;90.67;100564.94;1776970;80;21449;-72
2022/11/01 04:05:53;;;;;;;27.30;15.97;;;;;;;9.07;90.74;100569.44;1777100;80;21020;-72
2022/11/01 04:08:20;;;;;;;24.03;17.63;;;;;;;9.04;90.69;100576.06;1776996;80;21000;-72
2022/11/01 04:10:47;;;;;;;26.13;17.30;;;;;;;9.02;91.40;100567.39;1777455;80;20988;-72
2022/11/01 04:13:15;;;;;;;25.73;16.97;;;;;;;9.02;91.18;100562.63;1777010;80;21963;-72
2022/11/01 04:21:19;;;;;;;25.50;16.80;;;;;;;8.82;90.55;100561.41;1777379;80;21024;-71
2022/11/01 04:23:47;;;;;;;23.00;16.13;;;;;;;8.79;90.70;100565.42;1777099;80;21129;-72
2022/11/01 04:26:18;;;;;;;20.43;15.43;;;;;;;8.75;90.55;100568.15;1777365;80;21098;-71
2022/11/01 04:28:58;;;;;;;23.37;16.70;;;;;;;8.69;90.76;100567.41;1776996;80;20993;-72
2022/11/01 04:31:33;;;;;;;22.70;15.88;;;;;;;8.71;91.12;100567.38;1777490;80;20973;-71
2022/11/01 04:34:02;;;;;;;27.83;16.93;;;;;;;8.71;91.28;100562.16;1776071;80;21016;-72
2022/11/01 04:36:30;;;;;;;22.33;16.17;;;;;;;8.70;91.32;100553.47;1776957;80;21008;-72
2022/11/01 04:38:57;;;;;;;25.63;15.93;;;;;;;8.73;91.61;100552.95;1777234;80;21065;-73
2022/11/01 04:41:27;;;;;;;30.87;17.73;;;;;;;8.69;91.13;100549.12;1777309;80;20996;-71
2022/11/01 04:43:57;;;;;;;26.80;17.70;;;;;;;8.69;91.23;100553.48;1777201;80;20996;-72
2022/11/01 04:46:26;;;;;;;29.52;18.70;;;;;;;8.63;90.90;100548.44;1777577;80;21052;-71
2022/11/01 04:48:53;;;;;;;32.73;22.00;;;;;;;8.58;90.79;100555.53;1777254;80;21276;-72
2022/11/01 04:51:20;;;;;;;23.57;18.47;;;;;;;8.55;90.76;100546.02;1776989;80;21245;-72
2022/11/01 04:53:48;;;;;;;23.67;19.23;;;;;;;8.51;90.69;100551.35;1777238;80;21447;-72
2022/11/01 04:56:15;;;;;;;22.17;16.47;;;;;;;8.42;90.46;100554.61;1777332;80;21013;-72
2022/11/01 04:58:43;;;;;;;24.33;16.43;;;;;;;8.36;90.40;100554.73;1776896;80;21414;-72
2022/11/01 05:01:11;;;;;;;16.47;14.20;;;;;;;8.32;90.29;100560.95;1777270;80;21091;-72
2022/11/01 05:03:38;;;;;;;19.70;15.53;;;;;;;8.30;90.60;100557.97;1777081;80;21111;-71
2022/11/01 05:06:06;;;;;;;18.97;15.17;;;;;;;8.33;91.39;100548.30;1777804;80;21004;-72
2022/11/01 05:08:33;;;;;;;22.23;16.10;;;;;;;8.40;91.89;100549.90;1776920;80;20996;-79
2022/11/01 05:11:01;;;;;;;25.23;17.10;;;;;;;8.44;92.30;100541.52;1777056;80;20928;-71
2022/11/01 05:13:28;;;;;;;21.47;16.27;;;;;;;8.51;92.71;100544.40;1777072;80;21021;-71
2022/11/01 05:15:55;;;;;;;18.97;16.00;;;;;;;8.54;92.80;100535.63;1777094;80;21177;-71
2022/11/01 05:18:22;;;;;;;23.90;16.97;;;;;;;8.55;92.82;100534.26;1777003;80;20977;-72
2022/11/01 05:20:49;;;;;;;23.30;16.63;;;;;;;8.55;92.82;100532.95;1776980;80;21008;-71
2022/11/01 05:23:16;;;;;;;25.20;17.43;;;;;;;8.54;92.61;100531.25;1777067;80;21569;-72
2022/11/01 05:25:44;;;;;;;28.67;18.43;;;;;;;8.53;92.58;100525.59;1776993;80;20973;-71
2022/11/01 05:28:13;;;;;;;23.70;18.30;;;;;;;8.56;92.99;100512.91;1776957;80;21282;-72
2022/11/01 05:30:42;;;;;;;26.47;18.57;;;;;;;8.59;93.29;100514.13;1777043;80;20984;-72
2022/11/01 05:33:10;;;;;;;24.30;19.80;;;;;;;8.59;93.21;100522.84;1777020;80;21000;-73
2022/11/01 05:35:38;;;;;;;26.63;19.23;;;;;;;8.59;93.13;100533.72;1777395;80;20989;-72
2022/11/01 05:38:06;;;;;;;33.23;22.83;;;;;;;8.59;93.37;100540.25;1777132;80;20989;-71
2022/11/01 05:40:33;;;;;;;37.07;23.13;;;;;;;8.64;93.73;100555.36;1778009;80;21573;-71
2022/11/01 05:43:00;;;;;;;28.80;20.23;;;;;;;8.70;94.05;100559.11;1777153;80;22144;-72
2022/11/01 05:45:27;;;;;;;19.67;17.17;;;;;;;8.73;93.96;100563.41;1777505;80;20989;-71
2022/11/01 05:47:55;;;;;;;21.67;16.70;;;;;;;8.73;94.08;100569.94;1777193;80;21017;-72
2022/11/01 05:50:22;;;;;;;23.27;16.13;;;;;;;8.75;94.26;100576.84;1777329;80;21561;-72
2022/11/01 05:52:50;;;;;;;25.10;17.17;;;;;;;8.76;94.12;100583.80;1777091;80;21133;-72
2022/11/01 05:55:17;;;;;;;25.37;17.70;;;;;;;8.77;94.22;100582.04;1777362;80;21501;-72
2022/11/01 05:57:45;;;;;;;20.30;17.30;;;;;;;8.80;94.56;100586.73;1777311;80;21012;-72
2022/11/01 06:00:12;;;;;;;19.27;16.93;;;;;;;8.83;94.63;100592.32;1777148;80;21012;-71
2022/11/01 06:02:40;;;;;;;22.17;19.80;;;;;;;8.86;94.60;100603.55;1777294;80;21080;-72
2022/11/01 06:05:08;;;;;;;25.70;20.43;;;;;;;8.89;94.67;100618.30;1777453;80;21084;-71
2022/11/01 06:07:36;;;;;;;28.37;22.77;;;;;;;8.93;95.05;100610.80;1777142;80;20985;-72
2022/11/01 06:10:05;;;;;;;23.47;20.07;;;;;;;8.99;95.41;100604.09;1777430;80;21004;-72
2022/11/01 06:12:32;;;;;;;25.43;21.57;;;;;;;9.06;95.57;100593.88;1777127;80;21525;-72
2022/11/01 06:14:59;;;;;;;26.83;22.00;;;;;;;9.11;95.58;100588.05;1777417;80;21043;-72
2022/11/01 06:17:26;;;;;;;29.83;22.80;;;;;;;9.19;95.65;100573.91;1777096;80;21045;-72
2022/11/01 06:19:53;;;;;;;28.40;22.23;;;;;;;9.23;95.71;100563.75;1777469;80;21425;-71
2022/11/01 06:22:21;;;;;;;32.33;22.23;;;;;;;9.28;95.71;100552.70;1777181;80;21063;-72
2022/11/01 06:24:48;;;;;;;28.33;23.93;;;;;;;9.33;95.80;100561.28;1777482;80;21487;-72
2022/11/01 06:27:16;;;;;;;39.03;23.37;;;;;;;9.40;95.90;100578.98;1777096;80;21036;-78
2022/11/01 06:29:43;;;;;;;28.27;22.83;;;;;;;9.44;95.75;100599.76;1777319;80;21048;-71
2022/11/01 06:32:11;;;;;;;30.67;23.43;;;;;;;9.49;95.73;100615.33;1777086;80;21008;-72
2022/11/01 06:34:38;;;;;;;31.20;22.37;;;;;;;9.54;95.80;100614.75;1777400;80;21065;-71
2022/11/01 06:37:05;;;;;;;32.50;23.60;;;;;;;9.58;95.85;100618.52;1777227;80;20981;-72
2022/11/01 06:39:33;;;;;;;30.10;22.37;;;;;;;9.62;95.74;100618.00;1777263;80;21048;-71
2022/11/01 06:42:03;;;;;;;29.67;22.93;;;;;;;9.66;95.83;100624.84;1777147;80;22045;-71
2022/11/01 06:44:30;;;;;;;;;;;;;;;9.68;95.77;100613.89;1780112;80;21012;-71
2022/11/01 06:46:57;;;;;;;29.07;23.30;;;;;;;9.74;95.97;100623.31;1777145;80;20128;-71
2022/11/01 06:49:24;;;;;;;29.10;23.27;;;;;;;9.76;95.90;100626.30;1777390;80;21001;-72
2022/11/01 06:51:51;;;;;;;33.10;23.97;;;;;;;9.82;95.93;100625.25;1777074;80;21012;-71
2022/11/01 06:54:18;;;;;;;32.17;25.17;;;;;;;9.86;95.94;100620.77;1777166;80;21096;-72
2022/11/01 06:56:48;;;;;;;29.73;24.20;;;;;;;9.91;96.00;100622.80;1777322;80;21502;-72
2022/11/01 06:59:15;;;;;;;28.90;24.07;;;;;;;9.94;96.02;100618.32;1778331;80;28206;-71
2022/11/01 07:01:43;;;;;;;31.87;23.33;;;;;;;9.99;96.20;100620.81;1780157;80;21503;-72
2022/11/01 07:04:10;;;;;;;31.10;24.73;;;;;;;10.04;95.99;100614.98;1779856;80;21632;-72
2022/11/01 07:06:37;;;;;;;30.87;24.37;;;;;;;10.07;96.04;100611.41;1780243;80;21103;-71
2022/11/01 07:09:04;;;;;;;29.97;24.20;;;;;;;10.11;96.08;100612.55;1779832;80;21009;-71
2022/11/01 07:11:32;;;;;;;32.13;25.33;;;;;;;10.15;96.06;100613.33;1780091;80;20977;-72
2022/11/01 07:13:59;;;;;;;35.33;25.20;;;;;;;10.17;96.09;100611.07;1779929;80;21028;-72
2022/11/01 07:16:27;;;;;;;29.35;21.97;;;;;;;10.21;95.98;100623.16;1780238;80;21020;-72
2022/11/01 07:18:54;;;;;;;32.23;24.07;;;;;;;10.21;95.57;100627.53;1780147;80;21179;-71
2022/11/01 07:21:21;;;;;;;31.40;23.93;;;;;;;10.20;95.63;100621.91;1779692;80;20984;-72
2022/11/01 07:23:51;;;;;;;36.03;24.03;;;;;;;10.21;95.68;100611.82;1780066;80;20981;-72
2022/11/01 07:26:18;;;;;;;39.45;24.00;;;;;;;10.23;95.79;100616.56;1780003;80;21012;-72
2022/11/01 07:28:46;;;;;;;29.63;23.60;;;;;;;10.24;95.77;100613.03;1780078;80;21498;-72
2022/11/01 07:31:13;;;;;;;30.80;23.53;;;;;;;10.25;95.71;100605.56;1780179;80;21130;-72
2022/11/01 07:33:41;;;;;;;27.63;23.63;;;;;;;10.28;95.83;100602.87;1779955;80;21534;-72
2022/11/01 07:36:09;;;;;;;28.38;23.12;;;;;;;10.29;95.93;100594.13;1779847;80;21020;-72
2022/11/01 07:38:37;;;;;;;31.07;23.98;;;;;;;10.36;96.28;100597.39;1779993;80;21273;-72
2022/11/01 07:41:04;;;;;;;27.23;22.17;;;;;;;10.42;96.28;100600.69;1779820;80;21035;-72
2022/11/01 07:43:33;;;;;;;26.67;23.07;;;;;;;10.46;96.07;100597.50;1780460;80;21084;-72
2022/11/01 07:46:02;;;;;;;26.47;22.13;;;;;;;10.49;95.99;100602.63;1779730;80;21067;-72
2022/11/01 07:48:29;;;;;;;28.52;22.85;;;;;;;10.51;95.70;100615.23;1780189;80;21055;-72
2022/11/01 07:50:56;;;;;;;26.27;21.60;;;;;;;10.51;95.56;100610.45;1779843;80;21004;-72
2022/11/01 07:53:24;;;;;;;29.05;22.50;;;;;;;10.52;95.69;100610.39;1779895;80;21040;-72
2022/11/01 07:55:52;;;;;;;26.73;22.20;;;;;;;10.54;95.65;100612.52;1780028;80;21104;-79
2022/11/01 07:58:19;;;;;;;28.32;22.48;;;;;;;10.56;95.84;100612.02;1780186;80;21008;-72
2022/11/01 08:00:47;;;;;;;27.80;22.63;;;;;;;10.61;95.83;100611.84;1779695;80;21262;-72
2022/11/01 08:03:18;;;;;;;27.98;22.37;;;;;;;10.62;95.73;100609.18;1779757;80;21517;-72
2022/11/01 08:05:47;;;;;;;26.30;21.50;;;;;;;10.65;95.83;100601.67;1779946;80;21066;-72
2022/11/01 08:08:15;;;;;;;30.40;23.50;;;;;;;10.68;95.87;100606.34;1779858;80;21900;-71
2022/11/01 08:10:43;;;;;;;29.37;23.60;;;;;;;10.74;96.07;100610.52;1779680;80;21012;-71
2022/11/01 08:13:20;;;;;;;28.23;22.87;;;;;;;10.77;95.94;100616.97;1779875;80;21067;-71
2022/11/01 08:15:50;;;;;;;30.97;23.15;;;;;;;10.77;95.56;100633.16;1779777;80;21068;-72
2022/11/01 08:18:23;;;;;;;32.10;25.88;;;;;;;10.79;95.72;100637.44;1780267;80;21072;-72
2022/11/01 08:20:51;;;;;;;34.48;25.82;;;;;;;10.81;95.59;100639.56;1779888;80;21110;-72
2022/11/01 08:23:19;;;;;;;38.78;27.45;;;;;;;10.85;95.86;100643.78;1780071;80;21001;-72
2022/11/01 08:25:47;;;;;;;42.05;28.73;;;;;;;10.93;95.86;100641.75;1779772;80;21059;-72
2022/11/01 08:28:18;;;;;;;45.50;32.67;;;;;;;10.98;95.75;100647.31;1780120;80;20977;-71
2022/11/01 08:30:48;;;;;;;41.95;30.05;;;;;;;10.99;95.31;100665.59;1780065;80;21075;-72
2022/11/01 08:33:16;;;;;;;42.93;29.23;;;;;;;10.97;95.37;100645.12;1780741;80;21692;-72
2022/11/01 08:35:44;;;;;;;44.08;29.52;;;;;;;10.98;94.98;100643.38;1779657;80;21004;-78
2022/11/01 08:38:12;;;;;;;49.18;30.62;;;;;;;10.96;94.85;100639.48;1779867;80;21024;-72
2022/11/01 08:40:39;;;;;;;45.92;31.33;;;;;;;10.99;94.99;100637.20;1780001;80;21009;-74
2022/11/01 08:43:07;;;;;;;52.05;32.83;;;;;;;11.02;94.93;100630.54;1779872;80;21027;-72
2022/11/01 08:45:34;;;;;;;49.27;32.35;;;;;;;11.04;95.06;100636.60;1779758;80;21125;-72
2022/11/01 08:48:04;;;;;;;49.48;32.73;;;;;;;11.09;95.20;100636.84;1779980;80;21005;-72
2022/11/01 08:50:32;;;;;;;45.15;30.17;;;;;;;11.12;95.11;100634.10;1780130;80;21005;-72
2022/11/01 08:53:06;;;;;;;49.23;31.42;;;;;;;11.17;95.09;100635.27;1779786;80;21037;-71
2022/11/01 08:55:35;;;;;;;48.10;30.65;;;;;;;11.23;95.19;100637.66;1780082;80;21079;-71
2022/11/01 08:58:02;;;;;;;43.42;28.60;;;;;;;11.30;95.26;100643.06;1779822;80;21797;-71
2022/11/01 09:00:29;;;;;;;47.95;30.35;;;;;;;11.36;95.09;100646.80;1779978;80;20924;-72
2022/11/01 09:02:57;;;;;;;45.38;30.92;;;;;;;11.42;95.20;100632.60;1779847;80;21004;-72
2022/11/01 09:05:34;;;;;;;41.35;28.35;;;;;;;11.49;95.08;100633.22;1780129;80;21040;-72
2022/11/01 09:08:01;;;;;;;45.65;30.00;;;;;;;11.46;94.59;100626.31;1779972;80;21063;-72
2022/11/01 09:10:31;;;;;;;45.08;30.77;;;;;;;11.50;94.91;100629.67;1780117;80;21474;-72
2022/11/01 09:13:00;;;;;;;43.83;29.57;;;;;;;11.56;94.66;100642.12;1780094;80;21047;-72
2022/11/01 09:15:28;;;;;;;45.97;31.53;;;;;;;11.61;94.86;100637.56;1780534;80;21028;-72
2022/11/01 09:17:55;;;;;;;42.67;29.05;;;;;;;11.67;94.56;100643.05;1779891;80;20993;-71
2022/11/01 09:20:22;;;;;;;45.73;30.37;;;;;;;11.69;94.57;100630.69;1780307;80;21305;-72
2022/11/01 09:22:51;;;;;;;45.60;31.05;;;;;;;11.71;94.47;100636.75;1779969;80;21353;-72
2022/11/01 09:25:19;;;;;;;43.58;30.43;;;;;;;11.75;94.43;100640.10;1779944;80;20992;-72
2022/11/01 09:27:47;;;;;;;50.00;30.25;;;;;;;11.77;94.39;100631.72;1779988;80;21461;-72
2022/11/01 09:30:14;;;;;;;47.20;31.35;;;;;;;11.79;94.31;100638.62;1780239;80;20977;-71
2022/11/01 09:32:42;;;;;;;45.73;31.23;;;;;;;11.83;94.22;100645.92;1780043;80;20985;-72
2022/11/01 09:35:09;;;;;;;48.78;32.48;;;;;;;11.89;94.38;100644.86;1780237;80;21060;-72
2022/11/01 09:37:36;;;;;;;49.75;32.13;;;;;;;11.94;94.34;100649.02;1780006;80;21398;-71
2022/11/01 09:40:04;;;;;;;48.48;32.73;;;;;;;12.00;94.27;100645.33;1779853;80;21023;-72
2022/11/01 09:42:39;;;;;;;42.93;30.77;;;;;;;12.09;94.45;100644.96;1780166;80;20997;-72
2022/11/01 09:45:11;;;;;;;49.08;31.80;;;;;;;12.20;94.52;100644.08;1779942;80;21326;-71
2022/11/01 09:47:40;;;;;;;47.53;32.45;;;;;;;12.24;94.09;100636.91;1780260;80;21987;-72
2022/11/01 09:50:25;;;;;;;49.03;32.53;;;;;;;12.23;93.71;100643.10;1779696;80;20981;-72
2022/11/01 09:52:54;;;;;;;45.08;31.85;;;;;;;12.23;93.72;100645.73;1780089;80;20989;-72
2022/11/01 09:55:42;;;;;;;52.27;33.00;;;;;;;12.30;94.08;100647.64;1780103;80;21056;-72
2022/11/01 09:58:57;;;;;;;48.50;32.38;;;;;;;12.35;94.09;100644.37;1780177;80;21465;-73
2022/11/01 10:02:06;;;;;;;46.58;32.30;;;;;;;12.39;94.11;100658.66;1777471;80;21246;-73
2022/11/01 10:05:01;;;;;;;47.65;32.65;;;;;;;12.37;93.79;100671.00;1777380;80;21008;-73
2022/11/01 10:07:56;;;;;;;52.83;33.08;;;;;;;12.43;94.12;100669.89;1776348;80;21482;-73
2022/11/01 10:10:44;;;;;;;47.70;32.25;;;;;;;12.51;94.11;100674.38;1755447;80;21474;-72
2022/11/01 10:13:34;;;;;;;51.23;33.70;;;;;;;12.60;94.45;100675.31;1771617;80;20981;-72
2022/11/01 10:16:12;;;;;;;45.35;32.00;;;;;;;12.71;94.32;100677.03;1777292;80;21934;-72
2022/11/01 10:18:48;;;;;;;50.12;33.90;;;;;;;12.79;94.02;100675.88;1771816;80;21041;-72
2022/11/01 10:21:18;;;;;;;46.25;32.25;;;;;;;12.82;93.83;100678.38;1777270;80;20977;-78
2022/11/01 10:23:52;;;;;;;48.65;32.83;;;;;;;12.86;93.77;100674.25;1777856;80;21020;-72
2022/11/01 10:26:29;;;;;;;44.10;30.97;;;;;;;12.92;93.94;100677.08;1777260;80;21497;-79
2022/11/01 10:29:11;;;;;;;44.42;30.45;;;;;;;13.06;94.32;100682.61;1777164;80;21088;-72
2022/11/01 10:31:44;;;;;;;43.68;30.48;;;;;;;13.22;94.18;100672.72;1764372;80;21005;-72
2022/11/01 10:34:37;;;;;;;45.98;29.60;;;;;;;13.35;93.95;100672.61;1775827;80;21025;-73
2022/11/01 10:37:22;;;;;;;40.83;28.65;;;;;;;13.42;93.69;100662.21;1777148;80;21008;-73
2022/11/01 10:40:00;;;;;;;41.80;29.55;;;;;;;13.45;93.39;100660.75;1776550;80;21509;-74
2022/11/01 10:42:28;;;;;;;39.08;28.20;;;;;;;13.51;93.16;100668.84;1777670;80;21556;-72
2022/11/01 10:45:00;;;;;;;35.95;28.77;;;;;;;13.52;92.82;100675.38;1777050;80;20988;-72
2022/11/01 10:47:28;;;;;;;39.67;28.77;;;;;;;13.51;92.53;100674.11;1777590;80;21028;-72
2022/11/01 10:50:01;;;;;;;37.80;28.15;;;;;;;13.54;92.42;100668.70;1777102;80;21490;-77
2022/11/01 10:52:36;;;;;;;39.00;29.18;;;;;;;13.60;92.60;100664.00;1777491;80;21493;-72
2022/11/01 10:55:06;;;;;;;40.83;28.35;;;;;;;13.67;92.21;100665.91;1776875;80;21060;-72
2022/11/01 10:57:44;;;;;;;;;;;;;;;13.70;92.14;100671.50;1780010;80;21468;-72
2022/11/01 11:00:19;;;;;;;71.85;42.60;;;;;;;13.90;92.30;100666.63;1777045;80;20167;-73
2022/11/01 11:02:55;;;;;;;77.25;44.77;;;;;;;14.27;92.21;100668.36;1777137;80;20998;-73
2022/11/01 11:05:25;;;;;;;43.15;31.65;;;;;;;14.45;91.43;100668.80;1777163;80;21036;-72
2022/11/01 11:08:00;;;;;;;36.90;27.13;;;;;;;14.69;91.07;100669.42;1777580;80;21132;-73
2022/11/01 11:10:28;;;;;;;37.15;26.68;;;;;;;15.08;91.14;100660.41;1776733;80;20928;-72
2022/11/01 11:13:01;;;;;;;36.98;28.10;;;;;;;15.52;90.95;100656.34;1777121;80;21005;-72
2022/11/01 11:16:01;;;;;;;34.67;28.83;;;;;;;15.91;89.98;100649.89;1777215;80;21060;-72
2022/11/01 11:18:38;;;;;;;38.58;28.45;;;;;;;16.02;89.06;100637.77;1777276;80;21064;-79
2022/11/01 11:21:10;;;;;;;36.58;28.27;;;;;;;16.12;88.37;100646.03;1777275;80;21852;-71
2022/11/01 11:23:44;;;;;;;33.67;27.35;;;;;;;16.21;87.77;100651.27;1777608;80;20984;-71
2022/11/01 11:26:16;;;;;;;31.57;25.82;;;;;;;16.45;87.42;100663.58;1777208;80;20985;-72
2022/11/01 11:28:54;;;;;;;34.45;26.10;;;;;;;16.64;87.10;100667.34;1777585;80;20961;-73
2022/11/01 11:31:33;;;;;;;30.45;25.32;;;;;;;16.70;86.23;100673.59;1774606;80;21012;-72
2022/11/01 11:34:21;;;;;;;;;;;;;;;16.59;85.65;100672.89;1780078;80;21865;-72
2022/11/01 11:36:50;;;;;;;34.15;26.97;;;;;;;16.45;85.53;100667.06;1775914;80;20124;-72
2022/11/01 11:39:30;;;;;;;35.75;26.25;;;;;;;16.33;85.51;100668.25;1777202;80;20997;-73
2022/11/01 11:42:18;;;;;;;;;;;;;;;16.16;85.34;100665.24;1780133;80;21431;-72
2022/11/01 11:44:51;;;;;;;32.20;25.55;;;;;;;15.95;84.88;100658.02;1777212;80;20526;-73
2022/11/01 11:47:25;;;;;;;36.83;27.37;;;;;;;15.81;85.45;100654.34;1777459;80;21799;-73